Ammon, Idaho
Current Conditions -  °F | °C
As of 6:53 PM on Tuesday 25 Nov 2014 (Local Time) from KIDA Reporting Station
Few Clouds Few Clouds  
Wind Chill: 34°   Ceiling: Unl
Heat Index: 42°   Visibility: 10mi
Dew Point: 37°   Wind: 18mph
Humidity: 82%   Direction: 210°SSW
Pressure: 30.08"   Gusts: NA
Location:  43.4284°N, 111.925°W
Report Text: KIDA 260153Z 21016KT 10SM FEW120 06/03 A3008 RMK AO2 SLP197 T00560028
Loading
Personal Weather Stations






























Interactive Weather Map New forecast layout! Learn more

10-Day Weather Forecast

Advertisements
Track Severe Weather on mobile